Ansley, Louisiana
Current Conditions -  °F | °C
As of 6:15 PM on Friday 19 Dec 2014 (Local Time) from KRSN Reporting Station
Overcast Overcast  
Wind Chill: 40°   Ceiling: 400
Heat Index: 46°   Visibility: 7mi
Dew Point: 46°   Wind: 13mph
Humidity: 100%   Direction: 30°NNE
Pressure: 30.2"   Gusts: NA
Location:  32.5075°N, 92.6828°W
Report Text: KRSN 200015Z AUTO 03011KT 7SM OVC004 08/08 A3020 RMK AO2 T00750075
Loading
Personal Weather Stations






























Interactive Weather Map New forecast layout! Learn more

10-Day Weather Forecast

Advertisements
Track Severe Weather on mobile